Terminal Aerodrome Forecast
Issued by NWS Omaha/Valley, NE

Home | Current Version | Previous Version | Text Only | Print | Product List | Glossary On
Versions: 1 2 3 4 5 6 7 8 9 10 11 12 13 14 15 16
000
FTUS43 KOAX 281121
TAFLNK
TAF
KLNK 281121Z 2812/0112 VRB06KT P6SM BKN200
     FM281700 34006KT P6SM OVC080
     FM282000 34007KT P6SM VCSH OVC040
     FM282200 35010KT P6SM VCSH OVC025
     FM010500 32005KT P6SM OVC035
     FM011100 30007KT P6SM SCT050=

USA.gov is the U.S. government's official web portal to all federal, state and local government web resources and services.